sensor_id;sensor_type;location;lat;lon;timestamp;P1;durP1;ratioP1;P2;durP2;ratioP2
51836;SDS011;38941;53.254;6.600;2022-11-15T00:00:20;23.45;;;11.85;;
51836;SDS011;38941;53.254;6.600;2022-11-15T00:02:21;23.42;;;11.30;;
51836;SDS011;38941;53.254;6.600;2022-11-15T00:04:21;22.48;;;11.50;;
51836;SDS011;38941;53.254;6.600;2022-11-15T00:06:22;23.40;;;12.02;;
51836;SDS011;38941;53.254;6.600;2022-11-15T00:08:23;24.33;;;11.63;;
51836;SDS011;38941;53.254;6.600;2022-11-15T00:10:24;26.15;;;12.07;;
51836;SDS011;38941;53.254;6.600;2022-11-15T00:12:26;23.85;;;11.50;;
51836;SDS011;38941;53.254;6.600;2022-11-15T00:14:28;26.25;;;12.25;;
51836;SDS011;38941;53.254;6.600;2022-11-15T00:16:29;24.20;;;11.95;;
51836;SDS011;38941;53.254;6.600;2022-11-15T00:18:29;21.48;;;11.60;;
51836;SDS011;38941;53.254;6.600;2022-11-15T00:20:34;24.08;;;11.52;;
51836;SDS011;38941;53.254;6.600;2022-11-15T00:22:35;23.63;;;11.23;;
51836;SDS011;38941;53.254;6.600;2022-11-15T00:24:37;21.80;;;11.07;;
51836;SDS011;38941;53.254;6.600;2022-11-15T00:26:38;22.73;;;11.40;;
51836;SDS011;38941;53.254;6.600;2022-11-15T00:28:39;24.70;;;11.63;;
51836;SDS011;38941;53.254;6.600;2022-11-15T00:30:40;24.63;;;12.02;;
51836;SDS011;38941;53.254;6.600;2022-11-15T00:32:41;22.35;;;11.85;;
51836;SDS011;38941;53.254;6.600;2022-11-15T00:34:41;20.80;;;10.73;;
51836;SDS011;38941;53.254;6.600;2022-11-15T00:36:42;24.95;;;11.95;;
51836;SDS011;38941;53.254;6.600;2022-11-15T00:38:43;22.35;;;11.45;;
51836;SDS011;38941;53.254;6.600;2022-11-15T00:40:44;25.35;;;12.35;;
51836;SDS011;38941;53.254;6.600;2022-11-15T00:42:45;22.15;;;10.77;;
51836;SDS011;38941;53.254;6.600;2022-11-15T00:44:46;23.02;;;11.38;;
51836;SDS011;38941;53.254;6.600;2022-11-15T00:46:46;25.20;;;11.63;;
51836;SDS011;38941;53.254;6.600;2022-11-15T00:48:47;23.30;;;12.07;;
51836;SDS011;38941;53.254;6.600;2022-11-15T00:50:48;25.95;;;12.20;;
51836;SDS011;38941;53.254;6.600;2022-11-15T00:52:50;23.48;;;11.30;;
51836;SDS011;38941;53.254;6.600;2022-11-15T00:54:51;26.40;;;11.88;;
51836;SDS011;38941;53.254;6.600;2022-11-15T00:56:52;27.80;;;13.15;;
51836;SDS011;38941;53.254;6.600;2022-11-15T00:58:53;21.25;;;11.25;;
51836;SDS011;38941;53.254;6.600;2022-11-15T01:00:54;23.35;;;11.63;;
51836;SDS011;38941;53.254;6.600;2022-11-15T01:02:55;23.70;;;11.63;;
51836;SDS011;38941;53.254;6.600;2022-11-15T01:04:56;25.63;;;12.15;;
51836;SDS011;38941;53.254;6.600;2022-11-15T01:06:57;22.95;;;11.05;;
51836;SDS011;38941;53.254;6.600;2022-11-15T01:08:58;22.55;;;11.15;;
51836;SDS011;38941;53.254;6.600;2022-11-15T01:11:02;22.65;;;11.00;;
51836;SDS011;38941;53.254;6.600;2022-11-15T01:13:05;23.92;;;11.80;;
51836;SDS011;38941;53.254;6.600;2022-11-15T01:15:06;23.40;;;11.48;;
51836;SDS011;38941;53.254;6.600;2022-11-15T01:17:07;22.70;;;10.63;;
51836;SDS011;38941;53.254;6.600;2022-11-15T01:19:08;23.52;;;10.93;;
51836;SDS011;38941;53.254;6.600;2022-11-15T01:21:09;24.02;;;12.18;;
51836;SDS011;38941;53.254;6.600;2022-11-15T01:23:11;22.55;;;11.48;;
51836;SDS011;38941;53.254;6.600;2022-11-15T01:25:13;21.40;;;11.20;;
51836;SDS011;38941;53.254;6.600;2022-11-15T01:27:15;26.38;;;11.55;;
51836;SDS011;38941;53.254;6.600;2022-11-15T01:29:16;19.88;;;10.70;;
51836;SDS011;38941;53.254;6.600;2022-11-15T01:31:18;23.90;;;11.70;;
51836;SDS011;38941;53.254;6.600;2022-11-15T01:33:20;25.10;;;11.20;;
51836;SDS011;38941;53.254;6.600;2022-11-15T01:35:21;20.08;;;11.15;;
51836;SDS011;38941;53.254;6.600;2022-11-15T01:37:22;20.55;;;10.90;;
51836;SDS011;38941;53.254;6.600;2022-11-15T01:39:22;21.55;;;11.30;;
51836;SDS011;38941;53.254;6.600;2022-11-15T01:41:24;22.55;;;10.52;;
51836;SDS011;38941;53.254;6.600;2022-11-15T01:43:30;20.90;;;10.70;;
51836;SDS011;38941;53.254;6.600;2022-11-15T01:45:33;21.45;;;11.57;;
51836;SDS011;38941;53.254;6.600;2022-11-15T01:47:35;24.15;;;11.25;;
51836;SDS011;38941;53.254;6.600;2022-11-15T01:49:41;22.35;;;10.90;;
51836;SDS011;38941;53.254;6.600;2022-11-15T01:51:53;25.35;;;12.93;;
51836;SDS011;38941;53.254;6.600;2022-11-15T01:53:55;23.17;;;10.85;;
51836;SDS011;38941;53.254;6.600;2022-11-15T01:55:59;25.20;;;12.27;;
51836;SDS011;38941;53.254;6.600;2022-11-15T01:58:07;24.70;;;12.57;;
51836;SDS011;38941;53.254;6.600;2022-11-15T02:00:08;21.63;;;11.57;;
51836;SDS011;38941;53.254;6.600;2022-11-15T02:02:10;25.65;;;12.57;;
51836;SDS011;38941;53.254;6.600;2022-11-15T02:04:13;22.98;;;11.40;;
51836;SDS011;38941;53.254;6.600;2022-11-15T02:06:18;24.80;;;12.45;;
51836;SDS011;38941;53.254;6.600;2022-11-15T02:08:21;26.35;;;11.80;;
51836;SDS011;38941;53.254;6.600;2022-11-15T02:10:22;25.15;;;11.73;;
51836;SDS011;38941;53.254;6.600;2022-11-15T02:12:24;27.77;;;12.05;;
51836;SDS011;38941;53.254;6.600;2022-11-15T02:14:25;22.30;;;11.23;;
51836;SDS011;38941;53.254;6.600;2022-11-15T02:16:30;26.08;;;12.15;;
51836;SDS011;38941;53.254;6.600;2022-11-15T02:18:35;25.55;;;10.38;;
51836;SDS011;38941;53.254;6.600;2022-11-15T02:32:04;21.80;;;9.93;;
51836;SDS011;38941;53.254;6.600;2022-11-15T02:34:30;26.98;;;10.38;;
51836;SDS011;38941;53.254;6.600;2022-11-15T02:37:14;25.30;;;10.43;;
51836;SDS011;38941;53.254;6.600;2022-11-15T02:41:43;23.15;;;10.43;;
51836;SDS011;38941;53.254;6.600;2022-11-15T02:43:56;25.42;;;11.00;;
51836;SDS011;38941;53.254;6.600;2022-11-15T02:46:07;23.98;;;10.32;;
51836;SDS011;38941;53.254;6.600;2022-11-15T02:48:47;26.83;;;10.65;;
51836;SDS011;38941;53.254;6.600;2022-11-15T02:50:49;24.52;;;10.88;;
51836;SDS011;38941;53.254;6.600;2022-11-15T02:52:51;27.88;;;11.13;;
51836;SDS011;38941;53.254;6.600;2022-11-15T02:54:56;26.17;;;11.20;;
51836;SDS011;38941;53.254;6.600;2022-11-15T02:57:07;21.75;;;10.23;;
51836;SDS011;38941;53.254;6.600;2022-11-15T02:59:18;29.98;;;12.38;;
51836;SDS011;38941;53.254;6.600;2022-11-15T03:05:41;32.17;;;12.60;;
51836;SDS011;38941;53.254;6.600;2022-11-15T03:07:54;33.22;;;11.50;;
51836;SDS011;38941;53.254;6.600;2022-11-15T03:10:21;28.45;;;12.38;;
51836;SDS011;38941;53.254;6.600;2022-11-15T03:12:43;31.88;;;12.50;;
51836;SDS011;38941;53.254;6.600;2022-11-15T03:14:50;33.15;;;13.05;;
51836;SDS011;38941;53.254;6.600;2022-11-15T03:19:12;29.88;;;11.43;;
51836;SDS011;38941;53.254;6.600;2022-11-15T03:21:17;26.63;;;12.50;;
51836;SDS011;38941;53.254;6.600;2022-11-15T03:23:21;30.00;;;12.85;;
51836;SDS011;38941;53.254;6.600;2022-11-15T03:25:24;26.50;;;11.77;;
51836;SDS011;38941;53.254;6.600;2022-11-15T03:27:29;26.90;;;11.30;;
51836;SDS011;38941;53.254;6.600;2022-11-15T03:29:38;26.80;;;11.38;;
51836;SDS011;38941;53.254;6.600;2022-11-15T03:31:43;29.63;;;11.73;;
51836;SDS011;38941;53.254;6.600;2022-11-15T03:33:50;30.98;;;12.32;;
51836;SDS011;38941;53.254;6.600;2022-11-15T03:35:54;29.77;;;11.80;;
51836;SDS011;38941;53.254;6.600;2022-11-15T03:40:05;27.75;;;12.18;;
51836;SDS011;38941;53.254;6.600;2022-11-15T03:44:31;28.73;;;11.75;;
51836;SDS011;38941;53.254;6.600;2022-11-15T03:46:57;36.45;;;12.82;;
51836;SDS011;38941;53.254;6.600;2022-11-15T03:49:19;32.22;;;12.52;;
51836;SDS011;38941;53.254;6.600;2022-11-15T03:51:25;31.27;;;12.70;;
51836;SDS011;38941;53.254;6.600;2022-11-15T03:53:27;30.88;;;12.57;;
51836;SDS011;38941;53.254;6.600;2022-11-15T03:55:28;31.77;;;13.77;;
51836;SDS011;38941;53.254;6.600;2022-11-15T03:57:31;31.80;;;11.98;;
51836;SDS011;38941;53.254;6.600;2022-11-15T03:59:32;31.20;;;13.48;;
51836;SDS011;38941;53.254;6.600;2022-11-15T04:01:33;29.80;;;11.85;;
51836;SDS011;38941;53.254;6.600;2022-11-15T04:03:33;24.52;;;12.07;;
51836;SDS011;38941;53.254;6.600;2022-11-15T04:05:34;30.92;;;12.13;;
51836;SDS011;38941;53.254;6.600;2022-11-15T04:07:35;28.33;;;11.65;;
51836;SDS011;38941;53.254;6.600;2022-11-15T04:09:36;30.00;;;11.23;;
51836;SDS011;38941;53.254;6.600;2022-11-15T04:11:57;30.30;;;11.93;;
51836;SDS011;38941;53.254;6.600;2022-11-15T04:13:58;28.13;;;11.35;;
51836;SDS011;38941;53.254;6.600;2022-11-15T04:15:59;27.08;;;11.45;;
51836;SDS011;38941;53.254;6.600;2022-11-15T04:18:00;30.27;;;12.55;;
51836;SDS011;38941;53.254;6.600;2022-11-15T04:20:02;31.50;;;11.73;;
51836;SDS011;38941;53.254;6.600;2022-11-15T04:22:25;33.38;;;11.75;;
51836;SDS011;38941;53.254;6.600;2022-11-15T04:24:45;24.73;;;10.35;;
51836;SDS011;38941;53.254;6.600;2022-11-15T04:26:45;33.28;;;12.05;;
51836;SDS011;38941;53.254;6.600;2022-11-15T04:28:46;30.08;;;11.90;;
51836;SDS011;38941;53.254;6.600;2022-11-15T04:31:06;29.23;;;12.13;;
51836;SDS011;38941;53.254;6.600;2022-11-15T04:33:07;32.97;;;12.88;;
51836;SDS011;38941;53.254;6.600;2022-11-15T04:35:08;37.50;;;13.80;;
51836;SDS011;38941;53.254;6.600;2022-11-15T04:37:09;31.85;;;12.30;;
51836;SDS011;38941;53.254;6.600;2022-11-15T04:39:13;28.17;;;11.90;;
51836;SDS011;38941;53.254;6.600;2022-11-15T04:41:14;30.75;;;12.90;;
51836;SDS011;38941;53.254;6.600;2022-11-15T04:43:14;28.50;;;13.32;;
51836;SDS011;38941;53.254;6.600;2022-11-15T04:45:15;35.00;;;13.05;;
51836;SDS011;38941;53.254;6.600;2022-11-15T04:47:16;37.25;;;13.18;;
51836;SDS011;38941;53.254;6.600;2022-11-15T04:49:16;36.55;;;12.80;;
51836;SDS011;38941;53.254;6.600;2022-11-15T04:51:17;40.60;;;14.15;;
51836;SDS011;38941;53.254;6.600;2022-11-15T04:53:19;33.67;;;13.32;;
51836;SDS011;38941;53.254;6.600;2022-11-15T04:55:21;31.40;;;11.80;;
51836;SDS011;38941;53.254;6.600;2022-11-15T04:57:21;39.50;;;13.77;;
51836;SDS011;38941;53.254;6.600;2022-11-15T04:59:24;38.65;;;13.85;;
51836;SDS011;38941;53.254;6.600;2022-11-15T05:01:25;40.22;;;12.93;;
51836;SDS011;38941;53.254;6.600;2022-11-15T05:03:27;42.47;;;14.93;;
51836;SDS011;38941;53.254;6.600;2022-11-15T05:05:47;38.38;;;14.63;;
51836;SDS011;38941;53.254;6.600;2022-11-15T05:07:49;34.58;;;14.68;;
51836;SDS011;38941;53.254;6.600;2022-11-15T05:09:51;42.13;;;14.20;;
51836;SDS011;38941;53.254;6.600;2022-11-15T05:11:51;43.10;;;14.77;;
51836;SDS011;38941;53.254;6.600;2022-11-15T05:13:52;37.08;;;13.80;;
51836;SDS011;38941;53.254;6.600;2022-11-15T05:15:53;43.65;;;16.10;;
51836;SDS011;38941;53.254;6.600;2022-11-15T05:17:57;40.88;;;14.60;;
51836;SDS011;38941;53.254;6.600;2022-11-15T05:19:59;39.38;;;15.25;;
51836;SDS011;38941;53.254;6.600;2022-11-15T05:22:01;47.60;;;15.65;;
51836;SDS011;38941;53.254;6.600;2022-11-15T05:24:02;50.20;;;15.68;;
51836;SDS011;38941;53.254;6.600;2022-11-15T05:26:04;46.65;;;15.32;;
51836;SDS011;38941;53.254;6.600;2022-11-15T05:28:08;53.92;;;15.73;;
51836;SDS011;38941;53.254;6.600;2022-11-15T05:30:08;45.97;;;15.77;;
51836;SDS011;38941;53.254;6.600;2022-11-15T05:32:09;48.42;;;16.52;;
51836;SDS011;38941;53.254;6.600;2022-11-15T05:34:12;49.33;;;15.70;;
51836;SDS011;38941;53.254;6.600;2022-11-15T05:36:16;52.28;;;14.98;;
51836;SDS011;38941;53.254;6.600;2022-11-15T05:38:40;55.03;;;15.30;;
51836;SDS011;38941;53.254;6.600;2022-11-15T05:40:42;42.70;;;15.57;;
51836;SDS011;38941;53.254;6.600;2022-11-15T05:42:44;56.00;;;16.05;;
51836;SDS011;38941;53.254;6.600;2022-11-15T05:44:47;49.83;;;15.75;;
51836;SDS011;38941;53.254;6.600;2022-11-15T05:46:49;66.28;;;18.60;;
51836;SDS011;38941;53.254;6.600;2022-11-15T05:48:53;63.88;;;17.58;;
51836;SDS011;38941;53.254;6.600;2022-11-15T05:50:57;41.92;;;15.95;;
51836;SDS011;38941;53.254;6.600;2022-11-15T05:52:58;52.05;;;17.38;;
51836;SDS011;38941;53.254;6.600;2022-11-15T05:55:01;54.17;;;16.63;;
51836;SDS011;38941;53.254;6.600;2022-11-15T05:57:03;49.05;;;16.10;;
51836;SDS011;38941;53.254;6.600;2022-11-15T05:59:04;56.72;;;17.25;;
51836;SDS011;38941;53.254;6.600;2022-11-15T06:01:08;48.50;;;17.05;;
51836;SDS011;38941;53.254;6.600;2022-11-15T06:03:09;50.63;;;16.23;;
51836;SDS011;38941;53.254;6.600;2022-11-15T06:05:10;58.30;;;16.52;;
51836;SDS011;38941;53.254;6.600;2022-11-15T06:07:11;57.97;;;18.83;;
51836;SDS011;38941;53.254;6.600;2022-11-15T06:09:11;55.00;;;17.52;;
51836;SDS011;38941;53.254;6.600;2022-11-15T06:11:12;61.05;;;18.33;;
51836;SDS011;38941;53.254;6.600;2022-11-15T06:13:13;51.20;;;17.50;;
51836;SDS011;38941;53.254;6.600;2022-11-15T06:15:14;61.40;;;18.30;;
51836;SDS011;38941;53.254;6.600;2022-11-15T06:17:14;53.35;;;17.95;;
51836;SDS011;38941;53.254;6.600;2022-11-15T06:19:16;53.88;;;17.02;;
51836;SDS011;38941;53.254;6.600;2022-11-15T06:21:17;63.55;;;19.33;;
51836;SDS011;38941;53.254;6.600;2022-11-15T06:23:17;60.78;;;17.38;;
51836;SDS011;38941;53.254;6.600;2022-11-15T06:25:18;57.53;;;18.77;;
51836;SDS011;38941;53.254;6.600;2022-11-15T06:27:19;67.32;;;18.15;;
51836;SDS011;38941;53.254;6.600;2022-11-15T06:29:21;62.97;;;19.23;;
51836;SDS011;38941;53.254;6.600;2022-11-15T06:31:21;70.82;;;19.10;;
51836;SDS011;38941;53.254;6.600;2022-11-15T06:33:22;54.95;;;17.30;;
51836;SDS011;38941;53.254;6.600;2022-11-15T06:35:23;60.85;;;18.30;;
51836;SDS011;38941;53.254;6.600;2022-11-15T06:37:23;73.90;;;21.17;;
51836;SDS011;38941;53.254;6.600;2022-11-15T06:39:26;85.75;;;22.00;;
51836;SDS011;38941;53.254;6.600;2022-11-15T06:41:27;69.35;;;20.42;;
51836;SDS011;38941;53.254;6.600;2022-11-15T06:43:27;68.03;;;19.33;;
51836;SDS011;38941;53.254;6.600;2022-11-15T06:45:28;69.45;;;19.83;;
51836;SDS011;38941;53.254;6.600;2022-11-15T06:47:29;67.32;;;19.05;;
51836;SDS011;38941;53.254;6.600;2022-11-15T06:49:29;77.75;;;19.58;;
51836;SDS011;38941;53.254;6.600;2022-11-15T06:51:30;69.28;;;19.42;;
51836;SDS011;38941;53.254;6.600;2022-11-15T06:53:31;76.65;;;19.52;;
51836;SDS011;38941;53.254;6.600;2022-11-15T06:55:32;54.30;;;18.25;;
51836;SDS011;38941;53.254;6.600;2022-11-15T06:57:33;68.30;;;19.83;;
51836;SDS011;38941;53.254;6.600;2022-11-15T06:59:34;74.07;;;20.02;;
51836;SDS011;38941;53.254;6.600;2022-11-15T07:01:35;61.47;;;19.10;;
51836;SDS011;38941;53.254;6.600;2022-11-15T07:03:36;57.08;;;18.05;;
51836;SDS011;38941;53.254;6.600;2022-11-15T07:05:38;72.28;;;20.50;;
51836;SDS011;38941;53.254;6.600;2022-11-15T07:07:39;69.38;;;20.20;;
51836;SDS011;38941;53.254;6.600;2022-11-15T07:09:40;72.63;;;21.50;;
51836;SDS011;38941;53.254;6.600;2022-11-15T07:11:41;59.25;;;19.52;;
51836;SDS011;38941;53.254;6.600;2022-11-15T07:13:41;71.28;;;20.80;;
51836;SDS011;38941;53.254;6.600;2022-11-15T07:15:42;69.97;;;21.90;;
51836;SDS011;38941;53.254;6.600;2022-11-15T07:17:43;66.40;;;19.70;;
51836;SDS011;38941;53.254;6.600;2022-11-15T07:19:43;72.45;;;22.73;;
51836;SDS011;38941;53.254;6.600;2022-11-15T07:21:45;68.05;;;21.08;;
51836;SDS011;38941;53.254;6.600;2022-11-15T07:23:48;66.65;;;19.35;;
51836;SDS011;38941;53.254;6.600;2022-11-15T07:25:49;71.35;;;20.27;;
51836;SDS011;38941;53.254;6.600;2022-11-15T07:27:59;78.43;;;22.08;;
51836;SDS011;38941;53.254;6.600;2022-11-15T07:30:01;66.38;;;20.48;;
51836;SDS011;38941;53.254;6.600;2022-11-15T07:32:02;76.88;;;20.00;;
51836;SDS011;38941;53.254;6.600;2022-11-15T07:34:03;69.63;;;21.02;;
51836;SDS011;38941;53.254;6.600;2022-11-15T07:36:05;68.78;;;22.40;;
51836;SDS011;38941;53.254;6.600;2022-11-15T07:38:06;61.38;;;21.17;;
51836;SDS011;38941;53.254;6.600;2022-11-15T07:40:07;81.93;;;21.83;;
51836;SDS011;38941;53.254;6.600;2022-11-15T07:42:09;69.72;;;20.40;;
51836;SDS011;38941;53.254;6.600;2022-11-15T07:44:32;62.70;;;19.45;;
51836;SDS011;38941;53.254;6.600;2022-11-15T07:46:33;67.85;;;18.88;;
51836;SDS011;38941;53.254;6.600;2022-11-15T07:48:34;67.57;;;22.55;;
51836;SDS011;38941;53.254;6.600;2022-11-15T07:50:40;69.97;;;19.38;;
51836;SDS011;38941;53.254;6.600;2022-11-15T07:52:42;66.03;;;18.92;;
51836;SDS011;38941;53.254;6.600;2022-11-15T07:54:43;61.20;;;20.63;;
51836;SDS011;38941;53.254;6.600;2022-11-15T07:56:43;69.28;;;22.02;;
51836;SDS011;38941;53.254;6.600;2022-11-15T07:58:45;54.83;;;20.60;;
51836;SDS011;38941;53.254;6.600;2022-11-15T08:00:46;54.00;;;18.45;;
51836;SDS011;38941;53.254;6.600;2022-11-15T08:02:46;53.92;;;19.02;;
51836;SDS011;38941;53.254;6.600;2022-11-15T08:04:47;55.22;;;20.10;;
51836;SDS011;38941;53.254;6.600;2022-11-15T08:06:48;54.70;;;18.65;;
51836;SDS011;38941;53.254;6.600;2022-11-15T08:08:48;57.30;;;18.80;;
51836;SDS011;38941;53.254;6.600;2022-11-15T08:10:49;51.03;;;18.50;;
51836;SDS011;38941;53.254;6.600;2022-11-15T08:13:06;57.88;;;18.98;;
51836;SDS011;38941;53.254;6.600;2022-11-15T08:15:09;51.22;;;17.73;;
51836;SDS011;38941;53.254;6.600;2022-11-15T08:17:10;48.13;;;16.70;;
51836;SDS011;38941;53.254;6.600;2022-11-15T08:19:11;49.22;;;19.13;;
51836;SDS011;38941;53.254;6.600;2022-11-15T08:21:12;47.88;;;16.92;;
51836;SDS011;38941;53.254;6.600;2022-11-15T08:23:19;45.58;;;17.90;;
51836;SDS011;38941;53.254;6.600;2022-11-15T08:25:21;57.83;;;17.20;;
51836;SDS011;38941;53.254;6.600;2022-11-15T08:27:23;46.33;;;16.42;;
51836;SDS011;38941;53.254;6.600;2022-11-15T08:29:23;41.38;;;16.15;;
51836;SDS011;38941;53.254;6.600;2022-11-15T08:31:24;45.60;;;16.17;;
51836;SDS011;38941;53.254;6.600;2022-11-15T08:33:26;39.17;;;16.17;;
51836;SDS011;38941;53.254;6.600;2022-11-15T08:35:26;44.85;;;16.92;;
51836;SDS011;38941;53.254;6.600;2022-11-15T08:37:28;53.97;;;16.88;;
51836;SDS011;38941;53.254;6.600;2022-11-15T08:39:29;42.67;;;15.40;;
51836;SDS011;38941;53.254;6.600;2022-11-15T08:41:31;30.58;;;14.52;;
51836;SDS011;38941;53.254;6.600;2022-11-15T08:43:33;49.72;;;17.00;;
51836;SDS011;38941;53.254;6.600;2022-11-15T08:45:34;40.30;;;15.02;;
51836;SDS011;38941;53.254;6.600;2022-11-15T08:47:35;35.45;;;15.25;;
51836;SDS011;38941;53.254;6.600;2022-11-15T08:49:36;39.08;;;13.70;;
51836;SDS011;38941;53.254;6.600;2022-11-15T08:51:36;37.38;;;14.48;;
51836;SDS011;38941;53.254;6.600;2022-11-15T08:53:37;32.55;;;13.65;;
51836;SDS011;38941;53.254;6.600;2022-11-15T08:55:38;35.17;;;13.60;;
51836;SDS011;38941;53.254;6.600;2022-11-15T08:57:41;34.97;;;13.45;;
51836;SDS011;38941;53.254;6.600;2022-11-15T08:59:41;33.20;;;13.60;;
51836;SDS011;38941;53.254;6.600;2022-11-15T09:01:42;29.65;;;13.13;;
51836;SDS011;38941;53.254;6.600;2022-11-15T09:03:44;28.75;;;13.02;;
51836;SDS011;38941;53.254;6.600;2022-11-15T09:05:44;27.58;;;12.60;;
51836;SDS011;38941;53.254;6.600;2022-11-15T09:07:45;32.58;;;13.25;;
51836;SDS011;38941;53.254;6.600;2022-11-15T09:09:47;27.10;;;12.02;;
51836;SDS011;38941;53.254;6.600;2022-11-15T09:11:47;27.42;;;11.55;;
51836;SDS011;38941;53.254;6.600;2022-11-15T09:13:49;27.75;;;13.02;;
51836;SDS011;38941;53.254;6.600;2022-11-15T09:15:50;25.75;;;12.23;;
51836;SDS011;38941;53.254;6.600;2022-11-15T09:17:50;24.05;;;11.85;;
51836;SDS011;38941;53.254;6.600;2022-11-15T09:19:52;26.85;;;13.10;;
51836;SDS011;38941;53.254;6.600;2022-11-15T09:21:53;26.15;;;11.27;;
51836;SDS011;38941;53.254;6.600;2022-11-15T09:23:54;26.77;;;10.93;;
51836;SDS011;38941;53.254;6.600;2022-11-15T09:25:59;27.00;;;12.63;;
51836;SDS011;38941;53.254;6.600;2022-11-15T09:28:05;25.27;;;12.30;;
51836;SDS011;38941;53.254;6.600;2022-11-15T09:30:06;24.75;;;11.40;;
51836;SDS011;38941;53.254;6.600;2022-11-15T09:32:08;25.95;;;11.63;;
51836;SDS011;38941;53.254;6.600;2022-11-15T09:34:11;25.10;;;11.35;;
51836;SDS011;38941;53.254;6.600;2022-11-15T09:36:12;24.27;;;11.00;;
51836;SDS011;38941;53.254;6.600;2022-11-15T09:38:13;26.67;;;11.88;;
51836;SDS011;38941;53.254;6.600;2022-11-15T09:40:14;24.25;;;11.00;;
51836;SDS011;38941;53.254;6.600;2022-11-15T09:44:42;23.27;;;9.90;;
51836;SDS011;38941;53.254;6.600;2022-11-15T09:49:06;15.88;;;9.48;;
51836;SDS011;38941;53.254;6.600;2022-11-15T09:51:20;21.58;;;10.13;;
51836;SDS011;38941;53.254;6.600;2022-11-15T09:55:56;25.15;;;9.98;;
51836;SDS011;38941;53.254;6.600;2022-11-15T09:58:16;24.25;;;10.32;;
51836;SDS011;38941;53.254;6.600;2022-11-15T10:00:33;24.85;;;9.45;;
51836;SDS011;38941;53.254;6.600;2022-11-15T10:05:12;22.85;;;10.77;;
51836;SDS011;38941;53.254;6.600;2022-11-15T10:12:04;18.42;;;9.80;;
51836;SDS011;38941;53.254;6.600;2022-11-15T10:19:01;19.75;;;9.50;;
51836;SDS011;38941;53.254;6.600;2022-11-15T10:21:19;23.02;;;9.15;;
51836;SDS011;38941;53.254;6.600;2022-11-15T10:23:23;22.17;;;9.77;;
51836;SDS011;38941;53.254;6.600;2022-11-15T10:27:26;20.30;;;9.52;;
51836;SDS011;38941;53.254;6.600;2022-11-15T10:29:27;19.73;;;9.60;;
51836;SDS011;38941;53.254;6.600;2022-11-15T10:31:28;18.88;;;9.88;;
51836;SDS011;38941;53.254;6.600;2022-11-15T10:35:34;16.77;;;9.15;;
51836;SDS011;38941;53.254;6.600;2022-11-15T10:37:35;17.17;;;8.40;;
51836;SDS011;38941;53.254;6.600;2022-11-15T10:39:36;19.15;;;8.95;;
51836;SDS011;38941;53.254;6.600;2022-11-15T10:41:38;18.02;;;8.23;;
51836;SDS011;38941;53.254;6.600;2022-11-15T10:43:40;16.75;;;8.63;;
51836;SDS011;38941;53.254;6.600;2022-11-15T10:45:41;17.60;;;9.65;;
51836;SDS011;38941;53.254;6.600;2022-11-15T10:47:42;19.65;;;9.27;;
51836;SDS011;38941;53.254;6.600;2022-11-15T10:49:52;23.55;;;9.50;;
51836;SDS011;38941;53.254;6.600;2022-11-15T10:52:18;18.73;;;8.57;;
51836;SDS011;38941;53.254;6.600;2022-11-15T10:54:27;19.20;;;8.52;;
51836;SDS011;38941;53.254;6.600;2022-11-15T10:56:34;20.35;;;9.73;;
51836;SDS011;38941;53.254;6.600;2022-11-15T10:58:37;17.08;;;8.27;;
51836;SDS011;38941;53.254;6.600;2022-11-15T11:00:45;15.60;;;8.27;;
51836;SDS011;38941;53.254;6.600;2022-11-15T11:04:56;18.58;;;8.45;;
51836;SDS011;38941;53.254;6.600;2022-11-15T11:06:59;15.48;;;8.82;;
51836;SDS011;38941;53.254;6.600;2022-11-15T11:09:02;15.07;;;9.07;;
51836;SDS011;38941;53.254;6.600;2022-11-15T11:11:05;19.30;;;8.80;;
51836;SDS011;38941;53.254;6.600;2022-11-15T11:13:14;18.45;;;9.05;;
51836;SDS011;38941;53.254;6.600;2022-11-15T11:15:22;21.05;;;10.20;;
51836;SDS011;38941;53.254;6.600;2022-11-15T11:17:32;16.75;;;9.02;;
51836;SDS011;38941;53.254;6.600;2022-11-15T11:22:06;18.35;;;9.30;;
51836;SDS011;38941;53.254;6.600;2022-11-15T11:26:35;15.40;;;9.10;;
51836;SDS011;38941;53.254;6.600;2022-11-15T11:28:41;18.65;;;9.15;;
51836;SDS011;38941;53.254;6.600;2022-11-15T11:33:44;23.73;;;9.88;;
51836;SDS011;38941;53.254;6.600;2022-11-15T11:36:11;19.95;;;9.35;;
51836;SDS011;38941;53.254;6.600;2022-11-15T11:40:38;20.48;;;9.77;;
51836;SDS011;38941;53.254;6.600;2022-11-15T11:49:28;16.83;;;8.55;;
51836;SDS011;38941;53.254;6.600;2022-11-15T11:51:44;13.45;;;8.25;;
51836;SDS011;38941;53.254;6.600;2022-11-15T11:53:54;19.77;;;8.57;;
51836;SDS011;38941;53.254;6.600;2022-11-15T11:56:04;17.73;;;8.90;;
51836;SDS011;38941;53.254;6.600;2022-11-15T12:00:45;16.90;;;7.32;;
51836;SDS011;38941;53.254;6.600;2022-11-15T12:05:32;14.23;;;6.70;;
51836;SDS011;38941;53.254;6.600;2022-11-15T12:07:37;13.07;;;6.75;;
51836;SDS011;38941;53.254;6.600;2022-11-15T12:09:44;10.85;;;6.25;;
51836;SDS011;38941;53.254;6.600;2022-11-15T12:17:04;11.82;;;5.30;;
51836;SDS011;38941;53.254;6.600;2022-11-15T12:19:04;8.18;;;5.18;;
51836;SDS011;38941;53.254;6.600;2022-11-15T12:21:13;9.00;;;5.28;;
51836;SDS011;38941;53.254;6.600;2022-11-15T12:23:32;7.45;;;4.78;;
51836;SDS011;38941;53.254;6.600;2022-11-15T12:30:43;8.57;;;3.42;;
51836;SDS011;38941;53.254;6.600;2022-11-15T12:32:59;5.68;;;3.90;;
51836;SDS011;38941;53.254;6.600;2022-11-15T12:35:02;5.85;;;3.20;;
51836;SDS011;38941;53.254;6.600;2022-11-15T12:37:52;9.48;;;3.65;;
51836;SDS011;38941;53.254;6.600;2022-11-15T12:48:51;5.45;;;3.60;;
51836;SDS011;38941;53.254;6.600;2022-11-15T12:50:56;7.95;;;3.63;;
51836;SDS011;38941;53.254;6.600;2022-11-15T12:57:33;7.88;;;3.33;;
51836;SDS011;38941;53.254;6.600;2022-11-15T13:02:01;5.57;;;2.88;;
51836;SDS011;38941;53.254;6.600;2022-11-15T13:06:36;6.40;;;3.45;;
51836;SDS011;38941;53.254;6.600;2022-11-15T13:08:41;6.20;;;3.15;;
51836;SDS011;38941;53.254;6.600;2022-11-15T13:10:47;5.50;;;2.80;;
51836;SDS011;38941;53.254;6.600;2022-11-15T13:12:49;5.10;;;2.85;;
51836;SDS011;38941;53.254;6.600;2022-11-15T13:16:59;5.13;;;3.22;;
51836;SDS011;38941;53.254;6.600;2022-11-15T13:19:00;8.13;;;2.28;;
51836;SDS011;38941;53.254;6.600;2022-11-15T13:21:03;4.07;;;2.35;;
51836;SDS011;38941;53.254;6.600;2022-11-15T13:23:37;6.35;;;3.08;;
51836;SDS011;38941;53.254;6.600;2022-11-15T13:27:54;6.38;;;2.75;;
51836;SDS011;38941;53.254;6.600;2022-11-15T13:29:57;8.27;;;3.05;;
51836;SDS011;38941;53.254;6.600;2022-11-15T13:31:58;4.15;;;2.25;;
51836;SDS011;38941;53.254;6.600;2022-11-15T13:34:03;5.35;;;2.35;;
51836;SDS011;38941;53.254;6.600;2022-11-15T13:36:26;5.90;;;2.20;;
51836;SDS011;38941;53.254;6.600;2022-11-15T13:38:36;10.68;;;2.90;;
51836;SDS011;38941;53.254;6.600;2022-11-15T13:40:38;5.13;;;2.25;;
51836;SDS011;38941;53.254;6.600;2022-11-15T13:42:39;7.38;;;2.78;;
51836;SDS011;38941;53.254;6.600;2022-11-15T13:44:39;8.40;;;2.33;;
51836;SDS011;38941;53.254;6.600;2022-11-15T13:49:12;6.15;;;2.00;;
51836;SDS011;38941;53.254;6.600;2022-11-15T13:53:30;3.88;;;1.80;;
51836;SDS011;38941;53.254;6.600;2022-11-15T13:55:32;4.15;;;1.90;;
51836;SDS011;38941;53.254;6.600;2022-11-15T13:57:38;3.03;;;1.90;;
51836;SDS011;38941;53.254;6.600;2022-11-15T14:01:57;4.70;;;2.28;;